sensor_id;sensor_type;location;lat;lon;timestamp;P1;durP1;ratioP1;P2;durP2;ratioP2
9156;SDS011;4613;48.392;9.998;2023-02-28T00:00:59;1.63;;;1.10;;
9156;SDS011;4613;48.392;9.998;2023-02-28T00:03:48;1.10;;;1.10;;
9156;SDS011;4613;48.392;9.998;2023-02-28T00:06:38;1.00;;;0.93;;
9156;SDS011;4613;48.392;9.998;2023-02-28T00:09:27;0.80;;;0.80;;
9156;SDS011;4613;48.392;9.998;2023-02-28T00:12:16;2.55;;;1.10;;
9156;SDS011;4613;48.392;9.998;2023-02-28T00:15:06;0.98;;;0.98;;
9156;SDS011;4613;48.392;9.998;2023-02-28T00:17:57;1.10;;;1.10;;
9156;SDS011;4613;48.392;9.998;2023-02-28T00:20:46;1.23;;;1.02;;
9156;SDS011;4613;48.392;9.998;2023-02-28T00:23:36;0.80;;;0.80;;
9156;SDS011;4613;48.392;9.998;2023-02-28T00:26:25;1.10;;;0.98;;
9156;SDS011;4613;48.392;9.998;2023-02-28T00:29:15;0.90;;;0.90;;
9156;SDS011;4613;48.392;9.998;2023-02-28T00:32:06;1.25;;;1.15;;
9156;SDS011;4613;48.392;9.998;2023-02-28T00:34:56;0.95;;;0.95;;
9156;SDS011;4613;48.392;9.998;2023-02-28T00:37:45;0.98;;;0.98;;
9156;SDS011;4613;48.392;9.998;2023-02-28T00:40:36;1.40;;;1.30;;
9156;SDS011;4613;48.392;9.998;2023-02-28T00:43:26;0.90;;;0.90;;
9156;SDS011;4613;48.392;9.998;2023-02-28T00:46:15;0.82;;;0.82;;
9156;SDS011;4613;48.392;9.998;2023-02-28T00:49:04;1.17;;;1.08;;
9156;SDS011;4613;48.392;9.998;2023-02-28T00:51:54;0.85;;;0.85;;
9156;SDS011;4613;48.392;9.998;2023-02-28T00:54:43;1.27;;;1.17;;
9156;SDS011;4613;48.392;9.998;2023-02-28T00:57:33;0.98;;;0.98;;
9156;SDS011;4613;48.392;9.998;2023-02-28T01:00:23;1.02;;;1.02;;
9156;SDS011;4613;48.392;9.998;2023-02-28T01:03:12;0.93;;;0.93;;
9156;SDS011;4613;48.392;9.998;2023-02-28T01:06:02;1.05;;;0.95;;
9156;SDS011;4613;48.392;9.998;2023-02-28T01:08:52;0.70;;;0.70;;
9156;SDS011;4613;48.392;9.998;2023-02-28T01:11:41;1.23;;;1.13;;
9156;SDS011;4613;48.392;9.998;2023-02-28T01:14:32;1.20;;;1.10;;
9156;SDS011;4613;48.392;9.998;2023-02-28T01:17:22;0.80;;;0.80;;
9156;SDS011;4613;48.392;9.998;2023-02-28T01:20:12;0.95;;;0.95;;
9156;SDS011;4613;48.392;9.998;2023-02-28T01:23:01;1.33;;;1.30;;
9156;SDS011;4613;48.392;9.998;2023-02-28T01:25:50;1.45;;;1.17;;
9156;SDS011;4613;48.392;9.998;2023-02-28T01:28:41;0.75;;;0.75;;
9156;SDS011;4613;48.392;9.998;2023-02-28T01:31:31;1.25;;;0.93;;
9156;SDS011;4613;48.392;9.998;2023-02-28T01:34:21;1.33;;;1.23;;
9156;SDS011;4613;48.392;9.998;2023-02-28T01:37:10;2.53;;;1.08;;
9156;SDS011;4613;48.392;9.998;2023-02-28T01:40:00;3.75;;;1.20;;
9156;SDS011;4613;48.392;9.998;2023-02-28T01:42:49;1.30;;;1.20;;
9156;SDS011;4613;48.392;9.998;2023-02-28T01:45:39;0.85;;;0.85;;
9156;SDS011;4613;48.392;9.998;2023-02-28T01:48:30;1.98;;;1.00;;
9156;SDS011;4613;48.392;9.998;2023-02-28T01:51:26;1.25;;;1.15;;
9156;SDS011;4613;48.392;9.998;2023-02-28T01:54:29;1.00;;;0.90;;
9156;SDS011;4613;48.392;9.998;2023-02-28T01:57:27;1.08;;;1.08;;
9156;SDS011;4613;48.392;9.998;2023-02-28T02:00:28;1.33;;;1.05;;
9156;SDS011;4613;48.392;9.998;2023-02-28T02:03:19;1.80;;;1.10;;
9156;SDS011;4613;48.392;9.998;2023-02-28T02:06:09;1.27;;;1.13;;
9156;SDS011;4613;48.392;9.998;2023-02-28T02:08:59;1.38;;;1.20;;
9156;SDS011;4613;48.392;9.998;2023-02-28T02:11:48;1.05;;;1.05;;
9156;SDS011;4613;48.392;9.998;2023-02-28T02:14:46;1.23;;;1.08;;
9156;SDS011;4613;48.392;9.998;2023-02-28T02:17:56;0.77;;;0.77;;
9156;SDS011;4613;48.392;9.998;2023-02-28T02:21:03;0.95;;;0.95;;
9156;SDS011;4613;48.392;9.998;2023-02-28T02:30:53;1.27;;;0.90;;
9156;SDS011;4613;48.392;9.998;2023-02-28T02:37:29;1.05;;;1.00;;
9156;SDS011;4613;48.392;9.998;2023-02-28T02:40:25;0.98;;;0.98;;
9156;SDS011;4613;48.392;9.998;2023-02-28T02:43:32;1.00;;;0.95;;
9156;SDS011;4613;48.392;9.998;2023-02-28T02:46:28;1.35;;;1.20;;
9156;SDS011;4613;48.392;9.998;2023-02-28T02:49:22;1.38;;;1.20;;
9156;SDS011;4613;48.392;9.998;2023-02-28T02:52:17;1.33;;;1.17;;
9156;SDS011;4613;48.392;9.998;2023-02-28T02:55:11;2.00;;;1.80;;
9156;SDS011;4613;48.392;9.998;2023-02-28T02:58:04;1.25;;;1.15;;
9156;SDS011;4613;48.392;9.998;2023-02-28T03:00:58;1.25;;;1.15;;
9156;SDS011;4613;48.392;9.998;2023-02-28T03:03:50;0.75;;;0.75;;
9156;SDS011;4613;48.392;9.998;2023-02-28T03:06:41;1.17;;;1.08;;
9156;SDS011;4613;48.392;9.998;2023-02-28T03:09:32;1.02;;;1.00;;
9156;SDS011;4613;48.392;9.998;2023-02-28T03:12:29;3.10;;;1.55;;
9156;SDS011;4613;48.392;9.998;2023-02-28T03:25:31;0.80;;;0.80;;
9156;SDS011;4613;48.392;9.998;2023-02-28T03:31:43;1.10;;;0.98;;
9156;SDS011;4613;48.392;9.998;2023-02-28T03:34:38;3.50;;;1.67;;
9156;SDS011;4613;48.392;9.998;2023-02-28T03:37:32;1.23;;;1.17;;
9156;SDS011;4613;48.392;9.998;2023-02-28T03:40:25;1.60;;;1.33;;
9156;SDS011;4613;48.392;9.998;2023-02-28T03:43:20;1.17;;;1.10;;
9156;SDS011;4613;48.392;9.998;2023-02-28T03:46:14;1.25;;;1.17;;
9156;SDS011;4613;48.392;9.998;2023-02-28T03:49:20;1.30;;;1.20;;
9156;SDS011;4613;48.392;9.998;2023-02-28T03:52:15;1.17;;;1.13;;
9156;SDS011;4613;48.392;9.998;2023-02-28T03:55:09;0.95;;;0.93;;
9156;SDS011;4613;48.392;9.998;2023-02-28T03:58:04;2.45;;;1.60;;
9156;SDS011;4613;48.392;9.998;2023-02-28T04:01:05;1.45;;;1.35;;
9156;SDS011;4613;48.392;9.998;2023-02-28T04:03:57;0.98;;;0.98;;
9156;SDS011;4613;48.392;9.998;2023-02-28T04:06:49;1.00;;;0.90;;
9156;SDS011;4613;48.392;9.998;2023-02-28T04:09:40;1.20;;;1.15;;
9156;SDS011;4613;48.392;9.998;2023-02-28T04:12:30;0.93;;;0.93;;
9156;SDS011;4613;48.392;9.998;2023-02-28T04:15:19;1.35;;;1.25;;
9156;SDS011;4613;48.392;9.998;2023-02-28T04:18:11;1.85;;;1.38;;
9156;SDS011;4613;48.392;9.998;2023-02-28T04:21:00;0.93;;;0.93;;
9156;SDS011;4613;48.392;9.998;2023-02-28T04:23:49;1.83;;;1.60;;
9156;SDS011;4613;48.392;9.998;2023-02-28T04:26:38;1.10;;;1.10;;
9156;SDS011;4613;48.392;9.998;2023-02-28T04:29:29;1.33;;;1.10;;
9156;SDS011;4613;48.392;9.998;2023-02-28T04:32:23;1.13;;;1.10;;
9156;SDS011;4613;48.392;9.998;2023-02-28T04:35:13;1.17;;;1.00;;
9156;SDS011;4613;48.392;9.998;2023-02-28T04:38:03;1.70;;;1.50;;
9156;SDS011;4613;48.392;9.998;2023-02-28T04:40:52;1.75;;;1.30;;
9156;SDS011;4613;48.392;9.998;2023-02-28T04:43:46;1.30;;;1.20;;
9156;SDS011;4613;48.392;9.998;2023-02-28T04:46:36;1.17;;;1.10;;
9156;SDS011;4613;48.392;9.998;2023-02-28T04:49:25;2.63;;;1.08;;
9156;SDS011;4613;48.392;9.998;2023-02-28T04:52:15;1.23;;;1.17;;
9156;SDS011;4613;48.392;9.998;2023-02-28T04:55:05;1.35;;;1.25;;
9156;SDS011;4613;48.392;9.998;2023-02-28T04:57:54;1.35;;;1.23;;
9156;SDS011;4613;48.392;9.998;2023-02-28T05:00:44;1.45;;;1.33;;
9156;SDS011;4613;48.392;9.998;2023-02-28T05:03:33;2.03;;;1.50;;
9156;SDS011;4613;48.392;9.998;2023-02-28T05:06:24;1.15;;;1.05;;
9156;SDS011;4613;48.392;9.998;2023-02-28T05:09:15;2.05;;;1.67;;
9156;SDS011;4613;48.392;9.998;2023-02-28T05:12:04;2.88;;;1.30;;
9156;SDS011;4613;48.392;9.998;2023-02-28T05:14:54;1.73;;;1.40;;
9156;SDS011;4613;48.392;9.998;2023-02-28T05:17:43;2.05;;;1.52;;
9156;SDS011;4613;48.392;9.998;2023-02-28T05:20:32;1.60;;;1.00;;
9156;SDS011;4613;48.392;9.998;2023-02-28T05:23:22;1.83;;;1.30;;
9156;SDS011;4613;48.392;9.998;2023-02-28T05:26:13;1.30;;;1.25;;
9156;SDS011;4613;48.392;9.998;2023-02-28T05:29:02;1.35;;;1.27;;
9156;SDS011;4613;48.392;9.998;2023-02-28T05:31:52;1.60;;;1.25;;
9156;SDS011;4613;48.392;9.998;2023-02-28T05:34:41;1.40;;;1.30;;
9156;SDS011;4613;48.392;9.998;2023-02-28T05:37:30;1.83;;;1.52;;
9156;SDS011;4613;48.392;9.998;2023-02-28T05:40:19;1.50;;;1.40;;
9156;SDS011;4613;48.392;9.998;2023-02-28T05:43:09;1.42;;;1.33;;
9156;SDS011;4613;48.392;9.998;2023-02-28T05:46:01;2.30;;;1.73;;
9156;SDS011;4613;48.392;9.998;2023-02-28T05:48:52;1.60;;;1.42;;
9156;SDS011;4613;48.392;9.998;2023-02-28T05:51:42;2.28;;;1.73;;
9156;SDS011;4613;48.392;9.998;2023-02-28T05:54:31;1.85;;;1.38;;
9156;SDS011;4613;48.392;9.998;2023-02-28T05:57:21;2.20;;;1.50;;
9156;SDS011;4613;48.392;9.998;2023-02-28T06:00:11;2.10;;;1.63;;
9156;SDS011;4613;48.392;9.998;2023-02-28T06:03:03;2.22;;;2.03;;
9156;SDS011;4613;48.392;9.998;2023-02-28T06:05:52;1.40;;;1.30;;
9156;SDS011;4613;48.392;9.998;2023-02-28T06:08:42;3.05;;;1.98;;
9156;SDS011;4613;48.392;9.998;2023-02-28T06:11:33;6.05;;;1.77;;
9156;SDS011;4613;48.392;9.998;2023-02-28T06:14:22;1.45;;;1.23;;
9156;SDS011;4613;48.392;9.998;2023-02-28T06:17:12;1.67;;;1.55;;
9156;SDS011;4613;48.392;9.998;2023-02-28T06:20:01;1.80;;;1.58;;
9156;SDS011;4613;48.392;9.998;2023-02-28T06:22:51;2.47;;;1.95;;
9156;SDS011;4613;48.392;9.998;2023-02-28T06:25:45;2.00;;;1.80;;
9156;SDS011;4613;48.392;9.998;2023-02-28T06:28:34;1.50;;;1.40;;
9156;SDS011;4613;48.392;9.998;2023-02-28T06:31:24;2.33;;;1.88;;
9156;SDS011;4613;48.392;9.998;2023-02-28T06:34:14;4.07;;;1.90;;
9156;SDS011;4613;48.392;9.998;2023-02-28T06:37:04;1.42;;;1.30;;
9156;SDS011;4613;48.392;9.998;2023-02-28T06:39:53;2.22;;;2.00;;
9156;SDS011;4613;48.392;9.998;2023-02-28T06:42:44;1.55;;;1.42;;
9156;SDS011;4613;48.392;9.998;2023-02-28T06:45:33;2.55;;;1.77;;
9156;SDS011;4613;48.392;9.998;2023-02-28T06:48:23;3.03;;;1.33;;
9156;SDS011;4613;48.392;9.998;2023-02-28T06:51:18;1.90;;;1.55;;
9156;SDS011;4613;48.392;9.998;2023-02-28T06:54:10;2.13;;;1.65;;
9156;SDS011;4613;48.392;9.998;2023-02-28T06:57:01;1.88;;;1.45;;
9156;SDS011;4613;48.392;9.998;2023-02-28T06:59:50;1.30;;;1.20;;
9156;SDS011;4613;48.392;9.998;2023-02-28T07:02:39;2.40;;;1.90;;
9156;SDS011;4613;48.392;9.998;2023-02-28T07:05:28;2.67;;;1.95;;
9156;SDS011;4613;48.392;9.998;2023-02-28T07:08:18;7.55;;;1.90;;
9156;SDS011;4613;48.392;9.998;2023-02-28T07:11:07;2.00;;;1.83;;
9156;SDS011;4613;48.392;9.998;2023-02-28T07:13:56;1.83;;;1.38;;
9156;SDS011;4613;48.392;9.998;2023-02-28T07:16:45;2.92;;;2.05;;
9156;SDS011;4613;48.392;9.998;2023-02-28T07:19:35;3.10;;;1.75;;
9156;SDS011;4613;48.392;9.998;2023-02-28T07:22:25;2.10;;;1.83;;
9156;SDS011;4613;48.392;9.998;2023-02-28T07:25:14;2.20;;;1.67;;
9156;SDS011;4613;48.392;9.998;2023-02-28T07:28:04;3.10;;;1.77;;
9156;SDS011;4613;48.392;9.998;2023-02-28T07:30:53;3.30;;;2.35;;
9156;SDS011;4613;48.392;9.998;2023-02-28T07:33:43;2.20;;;1.58;;
9156;SDS011;4613;48.392;9.998;2023-02-28T07:36:32;2.13;;;1.55;;
9156;SDS011;4613;48.392;9.998;2023-02-28T07:39:22;3.83;;;2.20;;
9156;SDS011;4613;48.392;9.998;2023-02-28T07:42:12;2.63;;;1.77;;
9156;SDS011;4613;48.392;9.998;2023-02-28T07:45:02;1.70;;;1.60;;
9156;SDS011;4613;48.392;9.998;2023-02-28T07:47:52;2.70;;;1.70;;
9156;SDS011;4613;48.392;9.998;2023-02-28T07:50:42;1.77;;;1.60;;
9156;SDS011;4613;48.392;9.998;2023-02-28T07:53:31;5.45;;;1.90;;
9156;SDS011;4613;48.392;9.998;2023-02-28T07:56:21;2.15;;;1.90;;
9156;SDS011;4613;48.392;9.998;2023-02-28T07:59:11;2.25;;;1.75;;
9156;SDS011;4613;48.392;9.998;2023-02-28T08:02:00;2.17;;;1.88;;
9156;SDS011;4613;48.392;9.998;2023-02-28T08:04:51;2.30;;;2.10;;
9156;SDS011;4613;48.392;9.998;2023-02-28T08:07:40;2.30;;;2.00;;
9156;SDS011;4613;48.392;9.998;2023-02-28T08:10:30;2.75;;;2.13;;
9156;SDS011;4613;48.392;9.998;2023-02-28T08:13:19;1.92;;;1.75;;
9156;SDS011;4613;48.392;9.998;2023-02-28T08:16:09;2.67;;;2.22;;
9156;SDS011;4613;48.392;9.998;2023-02-28T08:19:00;2.10;;;1.90;;
9156;SDS011;4613;48.392;9.998;2023-02-28T08:21:49;2.03;;;1.75;;
9156;SDS011;4613;48.392;9.998;2023-02-28T08:24:40;1.70;;;1.60;;
9156;SDS011;4613;48.392;9.998;2023-02-28T08:27:32;3.70;;;2.38;;
9156;SDS011;4613;48.392;9.998;2023-02-28T08:30:21;1.80;;;1.70;;
9156;SDS011;4613;48.392;9.998;2023-02-28T08:33:11;3.13;;;2.38;;
9156;SDS011;4613;48.392;9.998;2023-02-28T08:36:00;2.58;;;1.90;;
9156;SDS011;4613;48.392;9.998;2023-02-28T08:38:51;2.88;;;2.50;;
9156;SDS011;4613;48.392;9.998;2023-02-28T08:42:05;2.45;;;2.03;;
9156;SDS011;4613;48.392;9.998;2023-02-28T08:44:55;2.33;;;1.98;;
9156;SDS011;4613;48.392;9.998;2023-02-28T08:47:45;2.83;;;2.55;;
9156;SDS011;4613;48.392;9.998;2023-02-28T08:50:35;2.78;;;2.25;;
9156;SDS011;4613;48.392;9.998;2023-02-28T08:53:24;1.98;;;1.70;;
9156;SDS011;4613;48.392;9.998;2023-02-28T08:56:15;4.20;;;2.28;;
9156;SDS011;4613;48.392;9.998;2023-02-28T08:59:08;2.15;;;1.88;;
9156;SDS011;4613;48.392;9.998;2023-02-28T09:01:58;3.20;;;2.17;;
9156;SDS011;4613;48.392;9.998;2023-02-28T09:04:47;3.20;;;2.90;;
9156;SDS011;4613;48.392;9.998;2023-02-28T09:07:36;2.45;;;2.00;;
9156;SDS011;4613;48.392;9.998;2023-02-28T09:10:26;2.33;;;1.98;;
9156;SDS011;4613;48.392;9.998;2023-02-28T09:13:15;3.55;;;2.50;;
9156;SDS011;4613;48.392;9.998;2023-02-28T09:16:06;1.88;;;1.67;;
9156;SDS011;4613;48.392;9.998;2023-02-28T09:18:57;3.92;;;2.63;;
9156;SDS011;4613;48.392;9.998;2023-02-28T09:21:47;3.90;;;2.25;;
9156;SDS011;4613;48.392;9.998;2023-02-28T09:24:37;2.30;;;2.17;;
9156;SDS011;4613;48.392;9.998;2023-02-28T09:27:27;3.05;;;2.72;;
9156;SDS011;4613;48.392;9.998;2023-02-28T09:30:16;3.10;;;2.00;;
9156;SDS011;4613;48.392;9.998;2023-02-28T09:33:06;2.40;;;2.20;;
9156;SDS011;4613;48.392;9.998;2023-02-28T09:36:00;3.55;;;2.30;;
9156;SDS011;4613;48.392;9.998;2023-02-28T09:38:49;2.92;;;2.20;;
9156;SDS011;4613;48.392;9.998;2023-02-28T09:41:42;3.53;;;2.42;;
9156;SDS011;4613;48.392;9.998;2023-02-28T09:44:40;3.58;;;2.53;;
9156;SDS011;4613;48.392;9.998;2023-02-28T09:47:34;2.60;;;2.15;;
9156;SDS011;4613;48.392;9.998;2023-02-28T09:50:30;3.05;;;2.75;;
9156;SDS011;4613;48.392;9.998;2023-02-28T09:53:28;3.08;;;2.70;;
9156;SDS011;4613;48.392;9.998;2023-02-28T09:59:18;3.67;;;2.67;;
9156;SDS011;4613;48.392;9.998;2023-02-28T10:06:35;2.22;;;1.80;;
9156;SDS011;4613;48.392;9.998;2023-02-28T10:09:11;3.25;;;2.30;;
9156;SDS011;4613;48.392;9.998;2023-02-28T10:12:08;2.58;;;2.38;;
9156;SDS011;4613;48.392;9.998;2023-02-28T10:14:59;2.42;;;2.13;;
9156;SDS011;4613;48.392;9.998;2023-02-28T10:17:51;5.35;;;2.97;;
9156;SDS011;4613;48.392;9.998;2023-02-28T10:20:45;4.13;;;2.63;;
9156;SDS011;4613;48.392;9.998;2023-02-28T10:23:37;2.63;;;2.42;;
9156;SDS011;4613;48.392;9.998;2023-02-28T10:26:27;2.35;;;2.15;;
9156;SDS011;4613;48.392;9.998;2023-02-28T10:29:19;3.58;;;2.63;;
9156;SDS011;4613;48.392;9.998;2023-02-28T10:32:09;4.03;;;2.10;;
9156;SDS011;4613;48.392;9.998;2023-02-28T10:35:21;2.80;;;2.60;;
9156;SDS011;4613;48.392;9.998;2023-02-28T10:38:16;3.22;;;2.25;;
9156;SDS011;4613;48.392;9.998;2023-02-28T10:41:15;2.28;;;2.05;;
9156;SDS011;4613;48.392;9.998;2023-02-28T10:44:22;3.03;;;2.72;;
9156;SDS011;4613;48.392;9.998;2023-02-28T10:47:15;4.82;;;3.60;;
9156;SDS011;4613;48.392;9.998;2023-02-28T10:50:23;4.82;;;4.13;;
9156;SDS011;4613;48.392;9.998;2023-02-28T10:56:15;4.63;;;2.90;;
9156;SDS011;4613;48.392;9.998;2023-02-28T11:02:35;2.90;;;2.60;;
9156;SDS011;4613;48.392;9.998;2023-02-28T11:05:31;3.67;;;2.67;;
9156;SDS011;4613;48.392;9.998;2023-02-28T11:08:22;3.05;;;2.50;;
9156;SDS011;4613;48.392;9.998;2023-02-28T11:11:13;6.43;;;3.20;;
9156;SDS011;4613;48.392;9.998;2023-02-28T11:14:03;2.90;;;2.10;;
9156;SDS011;4613;48.392;9.998;2023-02-28T11:16:57;5.63;;;3.33;;
9156;SDS011;4613;48.392;9.998;2023-02-28T11:19:51;3.25;;;2.65;;
9156;SDS011;4613;48.392;9.998;2023-02-28T11:22:44;4.22;;;3.15;;
9156;SDS011;4613;48.392;9.998;2023-02-28T11:25:36;4.55;;;2.85;;
9156;SDS011;4613;48.392;9.998;2023-02-28T11:31:21;5.60;;;3.55;;
9156;SDS011;4613;48.392;9.998;2023-02-28T11:34:25;4.25;;;3.13;;
9156;SDS011;4613;48.392;9.998;2023-02-28T11:37:17;3.67;;;3.05;;
9156;SDS011;4613;48.392;9.998;2023-02-28T11:40:15;5.63;;;3.13;;
9156;SDS011;4613;48.392;9.998;2023-02-28T11:49:32;4.15;;;3.10;;
9156;SDS011;4613;48.392;9.998;2023-02-28T11:52:59;5.18;;;3.25;;
9156;SDS011;4613;48.392;9.998;2023-02-28T11:55:56;7.60;;;3.40;;
9156;SDS011;4613;48.392;9.998;2023-02-28T12:02:29;6.68;;;3.40;;
9156;SDS011;4613;48.392;9.998;2023-02-28T12:09:03;5.00;;;2.75;;
9156;SDS011;4613;48.392;9.998;2023-02-28T12:27:32;4.95;;;3.17;;
9156;SDS011;4613;48.392;9.998;2023-02-28T12:30:28;4.28;;;3.05;;
9156;SDS011;4613;48.392;9.998;2023-02-28T12:33:26;4.47;;;2.88;;
9156;SDS011;4613;48.392;9.998;2023-02-28T12:36:22;4.07;;;3.00;;
9156;SDS011;4613;48.392;9.998;2023-02-28T12:39:15;4.75;;;3.63;;
9156;SDS011;4613;48.392;9.998;2023-02-28T12:42:28;4.05;;;3.28;;
9156;SDS011;4613;48.392;9.998;2023-02-28T12:45:22;6.30;;;3.83;;
9156;SDS011;4613;48.392;9.998;2023-02-28T12:48:15;4.18;;;3.30;;
9156;SDS011;4613;48.392;9.998;2023-02-28T12:51:31;4.97;;;3.13;;
9156;SDS011;4613;48.392;9.998;2023-02-28T12:54:32;4.65;;;3.30;;
9156;SDS011;4613;48.392;9.998;2023-02-28T12:57:48;3.97;;;3.08;;
9156;SDS011;4613;48.392;9.998;2023-02-28T13:00:43;5.72;;;3.38;;
9156;SDS011;4613;48.392;9.998;2023-02-28T13:07:10;5.22;;;3.13;;
9156;SDS011;4613;48.392;9.998;2023-02-28T13:10:19;4.65;;;3.22;;
9156;SDS011;4613;48.392;9.998;2023-02-28T13:13:16;4.47;;;3.00;;
9156;SDS011;4613;48.392;9.998;2023-02-28T13:16:09;4.38;;;3.20;;
9156;SDS011;4613;48.392;9.998;2023-02-28T13:19:09;6.13;;;3.28;;
9156;SDS011;4613;48.392;9.998;2023-02-28T13:22:00;5.72;;;3.70;;
9156;SDS011;4613;48.392;9.998;2023-02-28T13:27:42;4.55;;;3.42;;
9156;SDS011;4613;48.392;9.998;2023-02-28T13:36:39;4.88;;;3.33;;
9156;SDS011;4613;48.392;9.998;2023-02-28T13:45:20;3.38;;;2.45;;
9156;SDS011;4613;48.392;9.998;2023-02-28T13:48:20;3.83;;;3.13;;
9156;SDS011;4613;48.392;9.998;2023-02-28T13:57:52;5.13;;;3.08;;
9156;SDS011;4613;48.392;9.998;2023-02-28T14:07:43;3.67;;;2.97;;
9156;SDS011;4613;48.392;9.998;2023-02-28T14:10:37;5.38;;;3.20;;
9156;SDS011;4613;48.392;9.998;2023-02-28T14:13:47;5.10;;;3.20;;
9156;SDS011;4613;48.392;9.998;2023-02-28T14:19:36;6.72;;;3.42;;
9156;SDS011;4613;48.392;9.998;2023-02-28T14:25:44;3.58;;;2.75;;
9156;SDS011;4613;48.392;9.998;2023-02-28T14:34:45;5.38;;;3.03;;
9156;SDS011;4613;48.392;9.998;2023-02-28T14:37:51;4.97;;;2.95;;
9156;SDS011;4613;48.392;9.998;2023-02-28T14:40:42;3.90;;;2.90;;
9156;SDS011;4613;48.392;9.998;2023-02-28T14:43:32;4.63;;;2.78;;
9156;SDS011;4613;48.392;9.998;2023-02-28T14:46:22;3.97;;;3.17;;
9156;SDS011;4613;48.392;9.998;2023-02-28T14:49:32;4.13;;;3.30;;
9156;SDS011;4613;48.392;9.998;2023-02-28T14:52:28;6.05;;;3.15;;
9156;SDS011;4613;48.392;9.998;2023-02-28T14:55:23;3.55;;;2.53;;
9156;SDS011;4613;48.392;9.998;2023-02-28T14:58:33;4.10;;;2.90;;
9156;SDS011;4613;48.392;9.998;2023-02-28T15:01:24;4.47;;;2.63;;
9156;SDS011;4613;48.392;9.998;2023-02-28T15:04:18;5.60;;;3.13;;
9156;SDS011;4613;48.392;9.998;2023-02-28T15:07:14;4.47;;;2.50;;
9156;SDS011;4613;48.392;9.998;2023-02-28T15:13:13;4.80;;;3.45;;
9156;SDS011;4613;48.392;9.998;2023-02-28T15:19:12;5.25;;;3.08;;
9156;SDS011;4613;48.392;9.998;2023-02-28T15:22:14;2.88;;;2.45;;
9156;SDS011;4613;48.392;9.998;2023-02-28T15:25:07;4.22;;;2.83;;
9156;SDS011;4613;48.392;9.998;2023-02-28T15:28:02;3.08;;;2.78;;
9156;SDS011;4613;48.392;9.998;2023-02-28T15:30:53;3.72;;;2.97;;
9156;SDS011;4613;48.392;9.998;2023-02-28T15:33:57;6.38;;;2.88;;
9156;SDS011;4613;48.392;9.998;2023-02-28T15:36:52;3.70;;;2.72;;
9156;SDS011;4613;48.392;9.998;2023-02-28T15:39:41;4.30;;;2.97;;
9156;SDS011;4613;48.392;9.998;2023-02-28T15:42:34;3.13;;;2.72;;
9156;SDS011;4613;48.392;9.998;2023-02-28T15:45:32;4.47;;;3.30;;
9156;SDS011;4613;48.392;9.998;2023-02-28T15:48:51;6.25;;;3.33;;
9156;SDS011;4613;48.392;9.998;2023-02-28T15:51:45;4.43;;;2.70;;
9156;SDS011;4613;48.392;9.998;2023-02-28T15:54:35;4.18;;;2.72;;
9156;SDS011;4613;48.392;9.998;2023-02-28T15:57:25;8.25;;;3.58;;
9156;SDS011;4613;48.392;9.998;2023-02-28T16:00:19;3.35;;;2.85;;
9156;SDS011;4613;48.392;9.998;2023-02-28T16:03:27;5.20;;;3.22;;
9156;SDS011;4613;48.392;9.998;2023-02-28T16:06:36;3.75;;;2.83;;
9156;SDS011;4613;48.392;9.998;2023-02-28T16:09:37;4.20;;;3.20;;
9156;SDS011;4613;48.392;9.998;2023-02-28T16:12:27;5.70;;;3.33;;
9156;SDS011;4613;48.392;9.998;2023-02-28T16:18:14;3.35;;;2.72;;
9156;SDS011;4613;48.392;9.998;2023-02-28T16:21:04;3.72;;;2.92;;
9156;SDS011;4613;48.392;9.998;2023-02-28T16:23:53;4.95;;;3.05;;
9156;SDS011;4613;48.392;9.998;2023-02-28T16:26:42;4.05;;;2.83;;
9156;SDS011;4613;48.392;9.998;2023-02-28T16:29:36;5.10;;;3.50;;
9156;SDS011;4613;48.392;9.998;2023-02-28T16:32:26;5.35;;;3.17;;
9156;SDS011;4613;48.392;9.998;2023-02-28T16:35:15;3.42;;;2.90;;
9156;SDS011;4613;48.392;9.998;2023-02-28T16:38:07;4.60;;;3.15;;
9156;SDS011;4613;48.392;9.998;2023-02-28T16:40:57;4.38;;;3.17;;
9156;SDS011;4613;48.392;9.998;2023-02-28T16:43:50;4.15;;;2.70;;
9156;SDS011;4613;48.392;9.998;2023-02-28T16:46:41;5.88;;;3.20;;
9156;SDS011;4613;48.392;9.998;2023-02-28T16:49:32;4.28;;;2.90;;
9156;SDS011;4613;48.392;9.998;2023-02-28T16:52:22;5.93;;;3.20;;
9156;SDS011;4613;48.392;9.998;2023-02-28T16:55:12;5.32;;;3.42;;
9156;SDS011;4613;48.392;9.998;2023-02-28T16:58:02;3.75;;;2.70;;
9156;SDS011;4613;48.392;9.998;2023-02-28T17:00:52;6.18;;;3.28;;
9156;SDS011;4613;48.392;9.998;2023-02-28T17:03:41;6.82;;;3.42;;
9156;SDS011;4613;48.392;9.998;2023-02-28T17:06:31;5.05;;;3.20;;
9156;SDS011;4613;48.392;9.998;2023-02-28T17:09:21;4.88;;;3.00;;
9156;SDS011;4613;48.392;9.998;2023-02-28T17:12:12;5.03;;;2.88;;
9156;SDS011;4613;48.392;9.998;2023-02-28T17:15:01;4.70;;;3.55;;
9156;SDS011;4613;48.392;9.998;2023-02-28T17:17:51;5.22;;;2.83;;
9156;SDS011;4613;48.392;9.998;2023-02-28T17:20:41;6.07;;;3.67;;
9156;SDS011;4613;48.392;9.998;2023-02-28T17:23:30;4.72;;;3.33;;
9156;SDS011;4613;48.392;9.998;2023-02-28T17:26:20;4.38;;;3.25;;
9156;SDS011;4613;48.392;9.998;2023-02-28T17:29:16;3.97;;;3.00;;
9156;SDS011;4613;48.392;9.998;2023-02-28T17:32:07;4.13;;;3.25;;
9156;SDS011;4613;48.392;9.998;2023-02-28T17:34:56;3.40;;;2.92;;
9156;SDS011;4613;48.392;9.998;2023-02-28T17:37:46;4.90;;;3.55;;
9156;SDS011;4613;48.392;9.998;2023-02-28T17:40:36;5.93;;;3.65;;
9156;SDS011;4613;48.392;9.998;2023-02-28T17:43:28;4.38;;;3.30;;
9156;SDS011;4613;48.392;9.998;2023-02-28T17:46:18;7.75;;;4.00;;
9156;SDS011;4613;48.392;9.998;2023-02-28T17:49:09;6.70;;;3.63;;
9156;SDS011;4613;48.392;9.998;2023-02-28T17:51:59;6.03;;;3.42;;
9156;SDS011;4613;48.392;9.998;2023-02-28T17:54:48;6.18;;;3.58;;
9156;SDS011;4613;48.392;9.998;2023-02-28T17:57:38;4.63;;;2.70;;
9156;SDS011;4613;48.392;9.998;2023-02-28T18:00:27;4.28;;;2.70;;
9156;SDS011;4613;48.392;9.998;2023-02-28T18:03:17;6.60;;;3.08;;
9156;SDS011;4613;48.392;9.998;2023-02-28T18:06:11;4.20;;;2.88;;
9156;SDS011;4613;48.392;9.998;2023-02-28T18:09:08;4.40;;;2.85;;
9156;SDS011;4613;48.392;9.998;2023-02-28T18:11:57;2.80;;;2.60;;
9156;SDS011;4613;48.392;9.998;2023-02-28T18:14:46;6.28;;;3.30;;
9156;SDS011;4613;48.392;9.998;2023-02-28T18:17:36;6.38;;;3.67;;
9156;SDS011;4613;48.392;9.998;2023-02-28T18:20:25;4.22;;;2.78;;
9156;SDS011;4613;48.392;9.998;2023-02-28T18:23:16;5.03;;;3.55;;
9156;SDS011;4613;48.392;9.998;2023-02-28T18:26:06;8.05;;;3.92;;
9156;SDS011;4613;48.392;9.998;2023-02-28T18:29:01;7.57;;;3.13;;
9156;SDS011;4613;48.392;9.998;2023-02-28T18:31:52;4.03;;;2.88;;
9156;SDS011;4613;48.392;9.998;2023-02-28T18:34:42;4.25;;;3.30;;
9156;SDS011;4613;48.392;9.998;2023-02-28T18:37:33;4.20;;;3.25;;
9156;SDS011;4613;48.392;9.998;2023-02-28T18:40:23;3.67;;;2.80;;
9156;SDS011;4613;48.392;9.998;2023-02-28T18:43:12;6.57;;;3.92;;
9156;SDS011;4613;48.392;9.998;2023-02-28T18:46:02;3.95;;;3.10;;
9156;SDS011;4613;48.392;9.998;2023-02-28T18:48:59;4.65;;;2.95;;
9156;SDS011;4613;48.392;9.998;2023-02-28T18:51:49;6.28;;;3.90;;
9156;SDS011;4613;48.392;9.998;2023-02-28T18:54:38;5.35;;;3.67;;
9156;SDS011;4613;48.392;9.998;2023-02-28T18:57:27;6.70;;;4.00;;
9156;SDS011;4613;48.392;9.998;2023-02-28T19:00:17;6.32;;;3.58;;
9156;SDS011;4613;48.392;9.998;2023-02-28T19:03:10;4.38;;;3.45;;
9156;SDS011;4613;48.392;9.998;2023-02-28T19:06:00;6.70;;;4.03;;
9156;SDS011;4613;48.392;9.998;2023-02-28T19:08:53;6.65;;;3.55;;
9156;SDS011;4613;48.392;9.998;2023-02-28T19:11:46;6.57;;;3.72;;
9156;SDS011;4613;48.392;9.998;2023-02-28T19:14:35;5.15;;;3.70;;
9156;SDS011;4613;48.392;9.998;2023-02-28T19:17:25;8.27;;;3.90;;
9156;SDS011;4613;48.392;9.998;2023-02-28T19:20:15;6.47;;;3.72;;
9156;SDS011;4613;48.392;9.998;2023-02-28T19:23:06;7.10;;;3.97;;
9156;SDS011;4613;48.392;9.998;2023-02-28T19:25:58;3.90;;;3.38;;
9156;SDS011;4613;48.392;9.998;2023-02-28T19:28:48;6.88;;;3.40;;
9156;SDS011;4613;48.392;9.998;2023-02-28T19:31:39;4.07;;;3.25;;
9156;SDS011;4613;48.392;9.998;2023-02-28T19:34:29;5.05;;;3.80;;
9156;SDS011;4613;48.392;9.998;2023-02-28T19:37:19;5.38;;;3.33;;
9156;SDS011;4613;48.392;9.998;2023-02-28T19:40:08;8.20;;;3.72;;
9156;SDS011;4613;48.392;9.998;2023-02-28T19:43:02;6.63;;;3.40;;
9156;SDS011;4613;48.392;9.998;2023-02-28T19:45:52;5.47;;;3.83;;
9156;SDS011;4613;48.392;9.998;2023-02-28T19:48:41;4.18;;;2.75;;
9156;SDS011;4613;48.392;9.998;2023-02-28T19:51:32;5.55;;;3.88;;
9156;SDS011;4613;48.392;9.998;2023-02-28T19:54:22;6.30;;;3.53;;